Time;durP1;ratioP1;P1;durP2;ratioP2;P2;SDS_P1;SDS_P2;PMS_P1;PMS_P2;Temp;Humidity;BMP_temperature;BMP_pressure;BME280_temperature;BME280_humidity;BME280_pressure;Samples;Min_cycle;Max_cycle;Signal;HPM_P1;HPM_P2
2024/03/06 00:02:11;;;;;;;1999.90;999.90;;;;;;;;;;6120600;23;20104;-78
2024/03/06 00:04:38;;;;;;;1999.90;999.90;;;;;;;;;;6121398;23;20022;-79
2024/03/06 00:07:05;;;;;;;1999.90;999.90;;;;;;;;;;6121024;23;20384;-78
2024/03/06 00:09:32;;;;;;;1999.90;999.90;;;;;;;;;;6120804;23;20053;-78
2024/03/06 00:11:59;;;;;;;1999.90;999.90;;;;;;;;;;6121065;23;20105;-78
2024/03/06 00:14:27;;;;;;;1999.90;999.90;;;;;;;;;;6121056;23;20018;-79
2024/03/06 00:16:55;;;;;;;1999.90;999.90;;;;;;;;;;6120388;23;20432;-79
2024/03/06 00:19:22;;;;;;;1999.90;999.90;;;;;;;;;;6120354;23;20460;-77
2024/03/06 00:21:49;;;;;;;1999.90;999.90;;;;;;;;;;6120900;23;20057;-79
2024/03/06 00:24:17;;;;;;;1999.90;999.90;;;;;;;;;;6120983;23;20026;-80
2024/03/06 00:26:44;;;;;;;1999.90;999.90;;;;;;;;;;6120487;23;20032;-78
2024/03/06 00:29:11;;;;;;;1999.90;999.90;;;;;;;;;;6120910;23;20073;-78
2024/03/06 00:31:43;;;;;;;1999.90;999.90;;;;;;;;;;6120677;23;20044;-78
2024/03/06 00:34:11;;;;;;;1999.90;999.90;;;;;;;;;;6120971;23;20026;-79
2024/03/06 00:36:37;;;;;;;1999.90;999.90;;;;;;;;;;6120506;23;20026;-79
2024/03/06 00:39:04;;;;;;;1999.90;999.90;;;;;;;;;;6120605;23;20059;-77
2024/03/06 00:41:31;;;;;;;1999.90;999.90;;;;;;;;;;6120191;23;20025;-78
2024/03/06 00:43:57;;;;;;;1999.90;999.90;;;;;;;;;;6120233;23;20025;-79
2024/03/06 00:46:24;;;;;;;1999.90;999.90;;;;;;;;;;6119913;23;20213;-79
2024/03/06 00:48:52;;;;;;;1999.90;999.90;;;;;;;;;;6119233;23;20025;-79
2024/03/06 00:51:19;;;;;;;1999.90;999.90;;;;;;;;;;6120263;23;20097;-78
2024/03/06 00:53:45;;;;;;;1999.90;999.90;;;;;;;;;;6120444;23;20049;-78
2024/03/06 00:56:12;;;;;;;1999.90;999.90;;;;;;;;;;6120404;23;20025;-79
2024/03/06 00:58:39;;;;;;;1999.90;999.90;;;;;;;;;;6120518;23;20173;-80
2024/03/06 01:01:05;;;;;;;1999.90;999.90;;;;;;;;;;6120441;23;20021;-78
2024/03/06 01:03:32;;;;;;;1999.90;999.90;;;;;;;;;;6120871;23;20022;-80
2024/03/06 01:05:59;;;;;;;1999.90;999.90;;;;;;;;;;6120625;23;20029;-78
2024/03/06 01:08:26;;;;;;;1999.90;999.90;;;;;;;;;;6120326;23;20051;-78
2024/03/06 01:10:53;;;;;;;1999.90;999.90;;;;;;;;;;6120097;23;20018;-78
2024/03/06 01:13:20;;;;;;;1999.90;999.90;;;;;;;;;;6120183;23;20044;-79
2024/03/06 01:15:47;;;;;;;1999.90;999.90;;;;;;;;;;6120785;23;20345;-78
2024/03/06 01:18:13;;;;;;;1999.90;999.90;;;;;;;;;;6121445;23;20063;-80
2024/03/06 01:20:40;;;;;;;1999.90;999.90;;;;;;;;;;6120824;23;20036;-79
2024/03/06 01:23:08;;;;;;;1999.90;999.90;;;;;;;;;;6120021;23;20032;-78
2024/03/06 01:25:34;;;;;;;1999.90;999.90;;;;;;;;;;6119838;23;20032;-80
2024/03/06 01:28:01;;;;;;;1999.90;999.90;;;;;;;;;;6119695;23;20465;-79
2024/03/06 01:30:27;;;;;;;1999.90;999.90;;;;;;;;;;6119936;23;20022;-78
2024/03/06 01:32:54;;;;;;;1999.90;999.90;;;;;;;;;;6119772;23;20337;-78
2024/03/06 01:35:20;;;;;;;1999.90;999.90;;;;;;;;;;6119699;23;20029;-79
2024/03/06 01:37:47;;;;;;;1999.90;999.90;;;;;;;;;;6120191;23;20032;-78
2024/03/06 01:40:15;;;;;;;1999.90;999.90;;;;;;;;;;6121690;23;20057;-79
2024/03/06 01:42:41;;;;;;;1999.90;999.90;;;;;;;;;;6121458;23;20449;-79
2024/03/06 01:45:09;;;;;;;1999.90;999.90;;;;;;;;;;6122093;23;20022;-79
2024/03/06 01:47:36;;;;;;;1999.90;999.90;;;;;;;;;;6121434;23;20471;-78
2024/03/06 01:50:03;;;;;;;1999.90;999.90;;;;;;;;;;6121920;23;20030;-78
2024/03/06 01:52:30;;;;;;;1999.90;999.90;;;;;;;;;;6121806;23;20022;-79
2024/03/06 01:54:57;;;;;;;1999.90;999.90;;;;;;;;;;6121938;23;20032;-79
2024/03/06 01:57:26;;;;;;;1999.90;999.90;;;;;;;;;;6121514;23;20030;-78
2024/03/06 01:59:55;;;;;;;1999.90;999.90;;;;;;;;;;6121424;23;20061;-78
2024/03/06 02:02:22;;;;;;;1999.90;999.90;;;;;;;;;;6120835;23;20129;-78
2024/03/06 02:04:48;;;;;;;1999.90;999.90;;;;;;;;;;6120969;23;20056;-78
2024/03/06 02:07:17;;;;;;;1999.90;999.90;;;;;;;;;;6120607;23;20022;-79
2024/03/06 02:09:44;;;;;;;1999.90;999.90;;;;;;;;;;6120704;23;20026;-78
2024/03/06 02:12:10;;;;;;;1999.90;999.90;;;;;;;;;;6120839;23;20022;-78
2024/03/06 02:14:38;;;;;;;1999.90;999.90;;;;;;;;;;6120410;23;20018;-77
2024/03/06 02:17:05;;;;;;;1999.90;999.90;;;;;;;;;;6120848;23;20022;-78
2024/03/06 02:19:39;;;;;;;1999.90;999.90;;;;;;;;;;6120947;23;20103;-79
2024/03/06 02:22:07;;;;;;;1999.90;999.90;;;;;;;;;;6120945;23;20298;-78
2024/03/06 02:24:34;;;;;;;1999.90;999.90;;;;;;;;;;6121011;23;20021;-79
2024/03/06 02:27:01;;;;;;;1999.90;999.90;;;;;;;;;;6119950;23;20505;-78
2024/03/06 02:29:27;;;;;;;1999.90;999.90;;;;;;;;;;6120406;23;20026;-79
2024/03/06 02:31:54;;;;;;;1999.90;999.90;;;;;;;;;;6120493;23;20044;-78
2024/03/06 02:34:20;;;;;;;1999.90;999.90;;;;;;;;;;6120351;23;20026;-79
2024/03/06 02:36:47;;;;;;;1999.90;999.90;;;;;;;;;;6120808;23;20028;-78
2024/03/06 02:39:14;;;;;;;1999.90;999.90;;;;;;;;;;6120324;23;20097;-78
2024/03/06 02:41:41;;;;;;;1999.90;999.90;;;;;;;;;;6120879;23;20022;-78
2024/03/06 02:44:08;;;;;;;1999.90;999.90;;;;;;;;;;6120200;23;20022;-80
2024/03/06 02:46:34;;;;;;;1999.90;999.90;;;;;;;;;;6120924;23;20125;-78
2024/03/06 02:49:01;;;;;;;1999.90;999.90;;;;;;;;;;6120285;23;20024;-78
2024/03/06 02:51:28;;;;;;;1999.90;999.90;;;;;;;;;;6119782;23;20022;-79
2024/03/06 02:53:54;;;;;;;1999.90;999.90;;;;;;;;;;6120325;23;20022;-79
2024/03/06 02:56:22;;;;;;;1999.90;999.90;;;;;;;;;;6120343;23;20022;-77
2024/03/06 02:58:49;;;;;;;1999.90;999.90;;;;;;;;;;6120240;23;20307;-78
2024/03/06 03:01:16;;;;;;;1999.90;999.90;;;;;;;;;;6120086;23;20073;-77
2024/03/06 03:03:44;;;;;;;1999.90;999.90;;;;;;;;;;6119613;23;20026;-79
2024/03/06 03:06:10;;;;;;;1999.90;999.90;;;;;;;;;;6120162;23;20022;-81
2024/03/06 03:08:37;;;;;;;1999.90;999.90;;;;;;;;;;6120481;23;20088;-77
2024/03/06 03:11:04;;;;;;;1999.90;999.90;;;;;;;;;;6120303;23;20033;-79
2024/03/06 03:13:32;;;;;;;1999.90;999.90;;;;;;;;;;6119932;23;20040;-79
2024/03/06 03:15:59;;;;;;;1999.90;999.90;;;;;;;;;;6120534;23;20057;-81
2024/03/06 03:18:25;;;;;;;1999.90;999.90;;;;;;;;;;6120239;23;20018;-78
2024/03/06 03:20:52;;;;;;;1999.90;999.90;;;;;;;;;;6120645;23;20113;-77
2024/03/06 03:23:21;;;;;;;1999.90;999.90;;;;;;;;;;6120851;23;20457;-79
2024/03/06 03:25:48;;;;;;;1999.90;999.90;;;;;;;;;;6120455;23;20053;-80
2024/03/06 03:28:15;;;;;;;1999.90;999.90;;;;;;;;;;6119838;23;20021;-78
2024/03/06 03:30:44;;;;;;;1999.90;999.90;;;;;;;;;;6120292;23;20032;-77
2024/03/06 03:33:11;;;;;;;1999.90;999.90;;;;;;;;;;6119832;23;20076;-78
2024/03/06 03:35:38;;;;;;;1999.90;999.90;;;;;;;;;;6119658;23;20026;-78
2024/03/06 03:38:05;;;;;;;1999.90;999.90;;;;;;;;;;6119644;23;20028;-78
2024/03/06 03:40:32;;;;;;;1999.90;999.90;;;;;;;;;;6119595;23;20465;-78
2024/03/06 03:42:59;;;;;;;1999.90;999.90;;;;;;;;;;6120627;23;20026;-79
2024/03/06 03:45:25;;;;;;;1999.90;999.90;;;;;;;;;;6120378;23;20056;-78
2024/03/06 03:47:53;;;;;;;1999.90;999.90;;;;;;;;;;6119670;23;20029;-78
2024/03/06 03:50:20;;;;;;;1999.90;999.90;;;;;;;;;;6119690;23;20476;-79
2024/03/06 03:52:46;;;;;;;1999.90;999.90;;;;;;;;;;6119389;23;20024;-78
2024/03/06 03:55:13;;;;;;;1999.90;999.90;;;;;;;;;;6119904;23;20048;-79
2024/03/06 03:57:39;;;;;;;1999.90;999.90;;;;;;;;;;6119521;23;20053;-78
2024/03/06 04:00:10;;;;;;;1999.90;999.90;;;;;;;;;;6119270;23;20470;-78
2024/03/06 04:02:37;;;;;;;1999.90;999.90;;;;;;;;;;6119482;23;20093;-77
2024/03/06 04:05:05;;;;;;;1999.90;999.90;;;;;;;;;;6119291;23;20032;-79
2024/03/06 04:07:32;;;;;;;1999.90;999.90;;;;;;;;;;6119531;23;20100;-77
2024/03/06 04:09:59;;;;;;;1999.90;999.90;;;;;;;;;;6119923;23;20022;-80
2024/03/06 04:12:26;;;;;;;1999.90;999.90;;;;;;;;;;6119716;23;20121;-80
2024/03/06 04:14:52;;;;;;;1999.90;999.90;;;;;;;;;;6119375;23;20081;-78
2024/03/06 04:17:19;;;;;;;1999.90;999.90;;;;;;;;;;6119212;23;20519;-78
2024/03/06 04:19:48;;;;;;;1999.90;999.90;;;;;;;;;;6118973;23;20032;-78
2024/03/06 04:22:16;;;;;;;1999.90;999.90;;;;;;;;;;6119239;23;20026;-79
2024/03/06 04:24:42;;;;;;;1999.90;999.90;;;;;;;;;;6118627;23;20448;-78
2024/03/06 04:27:09;;;;;;;1999.90;999.90;;;;;;;;;;6119705;23;20018;-77
2024/03/06 04:29:35;;;;;;;1999.90;999.90;;;;;;;;;;6118907;23;20457;-79
2024/03/06 04:32:02;;;;;;;1999.90;999.90;;;;;;;;;;6119513;23;20029;-79
2024/03/06 04:34:28;;;;;;;1999.90;999.90;;;;;;;;;;6119582;23;20032;-79
2024/03/06 04:36:55;;;;;;;1999.90;999.90;;;;;;;;;;6119347;23;20018;-77
2024/03/06 04:39:23;;;;;;;1999.90;999.90;;;;;;;;;;6119460;23;20026;-79
2024/03/06 04:41:50;;;;;;;1999.90;999.90;;;;;;;;;;6119770;23;20028;-78
2024/03/06 04:44:16;;;;;;;1999.90;999.90;;;;;;;;;;6120121;23;20017;-78
2024/03/06 04:46:43;;;;;;;1999.90;999.90;;;;;;;;;;6120205;23;20029;-77
2024/03/06 04:49:09;;;;;;;1999.90;999.90;;;;;;;;;;6120905;23;20032;-79
2024/03/06 04:51:36;;;;;;;1999.90;999.90;;;;;;;;;;6119909;23;20025;-77
2024/03/06 04:54:03;;;;;;;1999.90;999.90;;;;;;;;;;6120412;23;20022;-78
2024/03/06 04:56:31;;;;;;;1999.90;999.90;;;;;;;;;;6120000;23;20025;-78
2024/03/06 04:59:02;;;;;;;1999.90;999.90;;;;;;;;;;6120170;23;20022;-77
2024/03/06 05:01:29;;;;;;;1999.90;999.90;;;;;;;;;;6120135;23;20044;-79
2024/03/06 05:03:56;;;;;;;1999.90;999.90;;;;;;;;;;6120376;23;20058;-77
2024/03/06 05:06:23;;;;;;;1999.90;999.90;;;;;;;;;;6120244;23;20251;-78
2024/03/06 05:08:50;;;;;;;1999.90;999.90;;;;;;;;;;6120871;23;20036;-78
2024/03/06 05:11:17;;;;;;;1999.90;999.90;;;;;;;;;;6120647;23;20402;-77
2024/03/06 05:13:44;;;;;;;1999.90;999.90;;;;;;;;;;6120335;23;20022;-79
2024/03/06 05:16:11;;;;;;;1999.90;999.90;;;;;;;;;;6119887;23;20105;-78
2024/03/06 05:18:37;;;;;;;1999.90;999.90;;;;;;;;;;6120272;23;20021;-77
2024/03/06 05:21:05;;;;;;;1999.90;999.90;;;;;;;;;;6120365;23;20030;-78
2024/03/06 05:23:31;;;;;;;1999.90;999.90;;;;;;;;;;6119926;23;20025;-78
2024/03/06 05:25:58;;;;;;;1999.90;999.90;;;;;;;;;;6120527;23;20120;-78
2024/03/06 05:28:24;;;;;;;1999.90;999.90;;;;;;;;;;6120102;23;20025;-78
2024/03/06 05:30:52;;;;;;;1999.90;999.90;;;;;;;;;;6119724;23;20353;-78
2024/03/06 05:33:18;;;;;;;1999.90;999.90;;;;;;;;;;6120020;23;20471;-78
2024/03/06 05:35:45;;;;;;;1999.90;999.90;;;;;;;;;;6120376;23;20109;-78
2024/03/06 05:38:12;;;;;;;1999.90;999.90;;;;;;;;;;6120030;23;20024;-77
2024/03/06 05:40:40;;;;;;;1999.90;999.90;;;;;;;;;;6120115;23;20022;-76
2024/03/06 05:43:07;;;;;;;1999.90;999.90;;;;;;;;;;6119986;23;20022;-78
2024/03/06 05:45:33;;;;;;;1999.90;999.90;;;;;;;;;;6120353;23;20021;-76
2024/03/06 05:48:03;;;;;;;1999.90;999.90;;;;;;;;;;6120541;23;20108;-78
2024/03/06 05:50:30;;;;;;;1999.90;999.90;;;;;;;;;;6120273;23;20026;-77
2024/03/06 05:52:58;;;;;;;1999.90;999.90;;;;;;;;;;6120772;23;20022;-77
2024/03/06 05:55:24;;;;;;;1999.90;999.90;;;;;;;;;;6121434;23;20030;-77
2024/03/06 05:57:51;;;;;;;1999.90;999.90;;;;;;;;;;6121150;23;20032;-77
2024/03/06 06:00:21;;;;;;;1999.90;999.90;;;;;;;;;;6121414;23;20051;-78
2024/03/06 06:02:48;;;;;;;1999.90;999.90;;;;;;;;;;6121283;23;20022;-78
2024/03/06 06:05:18;;;;;;;1999.90;999.90;;;;;;;;;;6121983;23;20026;-78
2024/03/06 06:07:44;;;;;;;1999.90;999.90;;;;;;;;;;6121054;23;20629;-77
2024/03/06 06:10:11;;;;;;;1999.90;999.90;;;;;;;;;;6121394;23;20018;-78
2024/03/06 06:12:38;;;;;;;1999.90;999.90;;;;;;;;;;6121711;23;20018;-77
2024/03/06 06:15:07;;;;;;;1999.90;999.90;;;;;;;;;;6121295;23;20056;-78
2024/03/06 06:17:33;;;;;;;1999.90;999.90;;;;;;;;;;6120979;23;20476;-76
2024/03/06 06:20:00;;;;;;;1999.90;999.90;;;;;;;;;;6121404;23;20026;-77
2024/03/06 06:22:29;;;;;;;1999.90;999.90;;;;;;;;;;6121044;23;20018;-76
2024/03/06 06:24:56;;;;;;;1999.90;999.90;;;;;;;;;;6122065;23;20022;-76
2024/03/06 06:27:25;;;;;;;1999.90;999.90;;;;;;;;;;6123334;23;20401;-77
2024/03/06 06:29:53;;;;;;;1999.90;999.90;;;;;;;;;;6123122;23;20026;-77
2024/03/06 06:32:19;;;;;;;1999.90;999.90;;;;;;;;;;6123031;23;20101;-78
2024/03/06 06:34:46;;;;;;;1999.90;999.90;;;;;;;;;;6122729;23;20124;-77
2024/03/06 06:37:14;;;;;;;1999.90;999.90;;;;;;;;;;6123215;23;20021;-76
2024/03/06 06:39:42;;;;;;;1999.90;999.90;;;;;;;;;;6122760;23;20110;-76
2024/03/06 06:42:10;;;;;;;1999.90;999.90;;;;;;;;;;6123618;23;20040;-76
2024/03/06 06:44:37;;;;;;;1999.90;999.90;;;;;;;;;;6122851;23;20461;-76
2024/03/06 06:47:03;;;;;;;1999.90;999.90;;;;;;;;;;6123175;23;20022;-76
2024/03/06 06:49:30;;;;;;;1999.90;999.90;;;;;;;;;;6123210;23;20044;-77
2024/03/06 06:51:57;;;;;;;1999.90;999.90;;;;;;;;;;6122909;23;20022;-76
2024/03/06 06:54:23;;;;;;;1999.90;999.90;;;;;;;;;;6122974;23;20022;-77
2024/03/06 06:56:51;;;;;;;1999.90;999.90;;;;;;;;;;6123109;23;20022;-75
2024/03/06 06:59:19;;;;;;;1999.90;999.90;;;;;;;;;;6123175;23;20402;-75
2024/03/06 07:01:46;;;;;;;1999.90;999.90;;;;;;;;;;6122683;23;20109;-78
2024/03/06 07:04:16;;;;;;;1999.90;999.90;;;;;;;;;;6123121;23;20022;-78
2024/03/06 07:06:42;;;;;;;1999.90;999.90;;;;;;;;;;6122691;23;20512;-75
2024/03/06 07:09:09;;;;;;;1999.90;999.90;;;;;;;;;;6122962;23;20018;-76
2024/03/06 07:11:36;;;;;;;1999.90;999.90;;;;;;;;;;6123023;23;20104;-76
2024/03/06 07:14:03;;;;;;;1999.90;999.90;;;;;;;;;;6123075;23;20022;-78
2024/03/06 07:16:30;;;;;;;1999.90;999.90;;;;;;;;;;6122748;23;20021;-78
2024/03/06 07:18:56;;;;;;;1999.90;999.90;;;;;;;;;;6122725;23;20462;-76
2024/03/06 07:21:23;;;;;;;1999.90;999.90;;;;;;;;;;6122662;23;20025;-77
2024/03/06 07:23:50;;;;;;;1999.90;999.90;;;;;;;;;;6122618;23;20022;-77
2024/03/06 07:26:16;;;;;;;1999.90;999.90;;;;;;;;;;6122697;23;20029;-77
2024/03/06 07:28:43;;;;;;;1999.90;999.90;;;;;;;;;;6122803;23;20018;-76
2024/03/06 07:31:11;;;;;;;1999.90;999.90;;;;;;;;;;6122287;23;20109;-75
2024/03/06 07:33:38;;;;;;;1999.90;999.90;;;;;;;;;;6122497;23;20486;-78
2024/03/06 07:36:05;;;;;;;1999.90;999.90;;;;;;;;;;6122567;23;20022;-77
2024/03/06 07:38:32;;;;;;;1999.90;999.90;;;;;;;;;;6122743;23;20045;-77
2024/03/06 07:40:59;;;;;;;1999.90;999.90;;;;;;;;;;6122809;23;20057;-76
2024/03/06 07:43:26;;;;;;;1999.90;999.90;;;;;;;;;;6122242;23;20030;-77
2024/03/06 07:45:53;;;;;;;1999.90;999.90;;;;;;;;;;6122463;23;20440;-77
2024/03/06 07:48:21;;;;;;;1999.90;999.90;;;;;;;;;;6122447;23;20044;-78
2024/03/06 07:50:47;;;;;;;1999.90;999.90;;;;;;;;;;6122248;23;20452;-76
2024/03/06 07:53:14;;;;;;;1999.90;999.90;;;;;;;;;;6122749;23;20084;-78
2024/03/06 07:55:40;;;;;;;1999.90;999.90;;;;;;;;;;6122634;23;20405;-77
2024/03/06 07:58:08;;;;;;;1999.90;999.90;;;;;;;;;;6122351;23;20018;-78
2024/03/06 08:00:34;;;;;;;1999.90;999.90;;;;;;;;;;6122273;23;20056;-77
2024/03/06 08:03:01;;;;;;;1999.90;999.90;;;;;;;;;;6122204;23;20022;-77
2024/03/06 08:05:29;;;;;;;1999.90;999.90;;;;;;;;;;6122465;23;20018;-76
2024/03/06 08:07:56;;;;;;;1999.90;999.90;;;;;;;;;;6121850;23;20461;-76
2024/03/06 08:10:22;;;;;;;1999.90;999.90;;;;;;;;;;6122329;23;20026;-77
2024/03/06 08:12:49;;;;;;;1999.90;999.90;;;;;;;;;;6122400;23;20096;-77
2024/03/06 08:15:16;;;;;;;1999.90;999.90;;;;;;;;;;6121947;23;20030;-77
2024/03/06 08:17:44;;;;;;;1999.90;999.90;;;;;;;;;;6122084;23;20024;-77
2024/03/06 08:20:11;;;;;;;1999.90;999.90;;;;;;;;;;6121759;23;20341;-77
2024/03/06 08:22:42;;;;;;;1999.90;999.90;;;;;;;;;;6122144;23;20307;-77
2024/03/06 08:25:10;;;;;;;1999.90;999.90;;;;;;;;;;6122620;23;20022;-78
2024/03/06 08:27:38;;;;;;;1999.90;999.90;;;;;;;;;;6122119;23;20022;-78
2024/03/06 08:30:06;;;;;;;1999.90;999.90;;;;;;;;;;6121972;23;20030;-78
2024/03/06 08:32:35;;;;;;;1999.90;999.90;;;;;;;;;;6122043;23;20029;-78
2024/03/06 08:35:01;;;;;;;1999.90;999.90;;;;;;;;;;6122246;23;20049;-77
2024/03/06 08:37:28;;;;;;;1999.90;999.90;;;;;;;;;;6122084;23;20022;-77
2024/03/06 08:39:56;;;;;;;1999.90;999.90;;;;;;;;;;6122196;23;20060;-78
2024/03/06 08:42:22;;;;;;;1999.90;999.90;;;;;;;;;;6121976;23;20072;-76
2024/03/06 08:44:49;;;;;;;1999.90;999.90;;;;;;;;;;6121996;23;20028;-77
2024/03/06 08:47:15;;;;;;;1999.90;999.90;;;;;;;;;;6121501;23;20402;-77
2024/03/06 08:49:42;;;;;;;1999.90;999.90;;;;;;;;;;6121861;23;20017;-77
2024/03/06 08:52:09;;;;;;;1999.90;999.90;;;;;;;;;;6121668;23;20405;-77
2024/03/06 08:54:36;;;;;;;1999.90;999.90;;;;;;;;;;6122259;23;20029;-77
2024/03/06 08:57:04;;;;;;;1999.90;999.90;;;;;;;;;;6122127;23;20018;-77
2024/03/06 08:59:32;;;;;;;1999.90;999.90;;;;;;;;;;6121799;23;20120;-78
2024/03/06 09:02:12;;;;;;;1999.90;999.90;;;;;;;;;;6121527;23;20029;-77
2024/03/06 09:04:38;;;;;;;1999.90;999.90;;;;;;;;;;6121351;23;20024;-77
2024/03/06 09:07:05;;;;;;;1999.90;999.90;;;;;;;;;;6121899;23;20022;-77
2024/03/06 09:09:33;;;;;;;1999.90;999.90;;;;;;;;;;6121908;23;20101;-77
2024/03/06 09:12:00;;;;;;;1999.90;999.90;;;;;;;;;;6121850;23;20279;-78
2024/03/06 09:14:28;;;;;;;1999.90;999.90;;;;;;;;;;6121664;23;20033;-78
2024/03/06 09:16:55;;;;;;;1999.90;999.90;;;;;;;;;;6121679;23;20028;-77
2024/03/06 09:19:22;;;;;;;1999.90;999.90;;;;;;;;;;6121807;23;20345;-78
2024/03/06 09:21:49;;;;;;;1999.90;999.90;;;;;;;;;;6121260;23;20449;-77
2024/03/06 09:24:15;;;;;;;1999.90;999.90;;;;;;;;;;6120962;23;20445;-78
2024/03/06 09:26:42;;;;;;;1999.90;999.90;;;;;;;;;;6121705;23;20047;-77
2024/03/06 09:29:08;;;;;;;1999.90;999.90;;;;;;;;;;6121743;23;20101;-77
2024/03/06 09:31:37;;;;;;;1999.90;999.90;;;;;;;;;;6121768;23;20400;-77
2024/03/06 09:34:03;;;;;;;1999.90;999.90;;;;;;;;;;6121710;23;20026;-78
2024/03/06 09:36:30;;;;;;;1999.90;999.90;;;;;;;;;;6121825;23;20229;-78
2024/03/06 09:38:56;;;;;;;1999.90;999.90;;;;;;;;;;6121760;23;20101;-77
2024/03/06 09:41:23;;;;;;;1999.90;999.90;;;;;;;;;;6121592;23;20306;-77
2024/03/06 09:43:50;;;;;;;1999.90;999.90;;;;;;;;;;6121557;23;20022;-78
2024/03/06 09:46:16;;;;;;;1999.90;999.90;;;;;;;;;;6121398;23;20022;-77
2024/03/06 09:48:47;;;;;;;1999.90;999.90;;;;;;;;;;6121525;23;20471;-78
2024/03/06 09:51:14;;;;;;;1999.90;999.90;;;;;;;;;;6121707;23;20028;-77
2024/03/06 09:53:43;;;;;;;1999.90;999.90;;;;;;;;;;6121629;23;20022;-77
2024/03/06 09:56:10;;;;;;;1999.90;999.90;;;;;;;;;;6121458;23;20028;-78
2024/03/06 09:58:36;;;;;;;1999.90;999.90;;;;;;;;;;6121518;23;20024;-77
2024/03/06 10:01:06;;;;;;;1999.90;999.90;;;;;;;;;;6123373;23;20453;-76
2024/03/06 10:03:33;;;;;;;1999.90;999.90;;;;;;;;;;6123993;23;20450;-77
2024/03/06 10:06:01;;;;;;;1999.90;999.90;;;;;;;;;;6123648;23;20022;-78
2024/03/06 10:08:28;;;;;;;1999.90;999.90;;;;;;;;;;6123101;23;20102;-78
2024/03/06 10:10:55;;;;;;;1999.90;999.90;;;;;;;;;;6123523;23;20132;-77
2024/03/06 10:13:25;;;;;;;1999.90;999.90;;;;;;;;;;6123520;23;20050;-77
2024/03/06 10:15:58;;;;;;;1999.90;999.90;;;;;;;;;;6123256;23;20024;-77
2024/03/06 10:18:28;;;;;;;1999.90;999.90;;;;;;;;;;6122755;23;20032;-77
2024/03/06 10:20:55;;;;;;;1999.90;999.90;;;;;;;;;;6122862;23;20333;-78
2024/03/06 10:23:22;;;;;;;1999.90;999.90;;;;;;;;;;6123302;23;20025;-77
2024/03/06 10:25:52;;;;;;;1999.90;999.90;;;;;;;;;;6123438;23;20439;-78
2024/03/06 10:28:20;;;;;;;1999.90;999.90;;;;;;;;;;6122728;23;20475;-78
2024/03/06 10:30:47;;;;;;;1999.90;999.90;;;;;;;;;;6121786;23;20097;-78
2024/03/06 10:33:14;;;;;;;1999.90;999.90;;;;;;;;;;6121831;23;20384;-78
2024/03/06 10:35:42;;;;;;;1999.90;999.90;;;;;;;;;;6122120;23;20048;-77
2024/03/06 10:38:10;;;;;;;1999.90;999.90;;;;;;;;;;6122356;23;20045;-77
2024/03/06 10:40:41;;;;;;;1999.90;999.90;;;;;;;;;;6121798;23;20021;-78
2024/03/06 10:43:08;;;;;;;1999.90;999.90;;;;;;;;;;6122159;23;20022;-78
2024/03/06 10:45:45;;;;;;;1999.90;999.90;;;;;;;;;;6121916;23;20029;-78
2024/03/06 10:48:14;;;;;;;1999.90;999.90;;;;;;;;;;6122102;23;20026;-78
2024/03/06 10:50:43;;;;;;;1999.90;999.90;;;;;;;;;;6122493;23;20488;-77
2024/03/06 10:53:11;;;;;;;1999.90;999.90;;;;;;;;;;6122073;23;20073;-79
2024/03/06 10:55:39;;;;;;;1999.90;999.90;;;;;;;;;;6121522;23;20026;-78
2024/03/06 10:58:09;;;;;;;1999.90;999.90;;;;;;;;;;6121742;23;20022;-77
2024/03/06 11:00:37;;;;;;;1999.90;999.90;;;;;;;;;;6121079;23;20108;-77
2024/03/06 11:03:07;;;;;;;1999.90;999.90;;;;;;;;;;6121231;23;20038;-76
2024/03/06 11:05:35;;;;;;;1999.90;999.90;;;;;;;;;;6121189;23;20354;-77
2024/03/06 11:08:02;;;;;;;1999.90;999.90;;;;;;;;;;6121872;23;20022;-77
2024/03/06 11:10:33;;;;;;;1999.90;999.90;;;;;;;;;;6121545;23;20021;-77
2024/03/06 11:13:02;;;;;;;1999.90;999.90;;;;;;;;;;6122631;23;20026;-77
2024/03/06 11:15:28;;;;;;;1999.90;999.90;;;;;;;;;;6122592;23;20018;-76
2024/03/06 11:17:55;;;;;;;1999.90;999.90;;;;;;;;;;6122211;23;20022;-76
2024/03/06 11:20:25;;;;;;;1999.90;999.90;;;;;;;;;;6122441;23;20017;-76
2024/03/06 11:23:09;;;;;;;1999.90;999.90;;;;;;;;;;6122859;23;20097;-77
2024/03/06 11:26:02;;;;;;;1999.90;999.90;;;;;;;;;;6122872;23;20112;-77
2024/03/06 11:28:31;;;;;;;1999.90;999.90;;;;;;;;;;6123341;23;20025;-78
2024/03/06 11:30:59;;;;;;;1999.90;999.90;;;;;;;;;;6122813;23;20101;-77
2024/03/06 11:33:30;;;;;;;1999.90;999.90;;;;;;;;;;6122836;23;20029;-78
2024/03/06 11:36:18;;;;;;;1999.90;999.90;;;;;;;;;;6122648;23;20018;-77
2024/03/06 11:38:48;;;;;;;1999.90;999.90;;;;;;;;;;6122601;23;20343;-77
2024/03/06 11:41:14;;;;;;;1999.90;999.90;;;;;;;;;;6122514;23;20030;-78
2024/03/06 11:43:46;;;;;;;1999.90;999.90;;;;;;;;;;6122782;23;20486;-78
2024/03/06 11:46:12;;;;;;;1999.90;999.90;;;;;;;;;;6121995;23;20018;-77
2024/03/06 11:48:39;;;;;;;1999.90;999.90;;;;;;;;;;6122681;23;20068;-79
2024/03/06 11:51:06;;;;;;;1999.90;999.90;;;;;;;;;;6122645;23;20029;-77
2024/03/06 11:53:34;;;;;;;1999.90;999.90;;;;;;;;;;6122542;23;20026;-77
2024/03/06 11:56:01;;;;;;;1999.90;999.90;;;;;;;;;;6122507;23;20022;-78
2024/03/06 11:58:27;;;;;;;1999.90;999.90;;;;;;;;;;6121979;23;20050;-79
2024/03/06 12:00:55;;;;;;;1999.90;999.90;;;;;;;;;;6121541;23;20542;-77
2024/03/06 12:03:25;;;;;;;1999.90;999.90;;;;;;;;;;6120916;23;20030;-78
2024/03/06 12:05:51;;;;;;;1999.90;999.90;;;;;;;;;;6120878;23;20057;-77
2024/03/06 12:08:18;;;;;;;1999.90;999.90;;;;;;;;;;6121288;23;20018;-78
2024/03/06 12:10:46;;;;;;;1999.90;999.90;;;;;;;;;;6121360;23;20393;-78
2024/03/06 12:13:13;;;;;;;1999.90;999.90;;;;;;;;;;6121272;23;20026;-78
2024/03/06 12:15:43;;;;;;;1999.90;999.90;;;;;;;;;;6120303;23;20026;-79
2024/03/06 12:18:10;;;;;;;1999.90;999.90;;;;;;;;;;6120896;23;20021;-77
2024/03/06 12:20:45;;;;;;;1999.90;999.90;;;;;;;;;;6122015;23;20053;-77
2024/03/06 12:23:20;;;;;;;1999.90;999.90;;;;;;;;;;6120815;23;20022;-78
2024/03/06 12:25:47;;;;;;;1999.90;999.90;;;;;;;;;;6120809;23;20528;-76
2024/03/06 12:28:14;;;;;;;1999.90;999.90;;;;;;;;;;6122031;23;20022;-78
2024/03/06 12:30:44;;;;;;;1999.90;999.90;;;;;;;;;;6121386;23;20353;-78
2024/03/06 12:33:17;;;;;;;1999.90;999.90;;;;;;;;;;6120908;23;20057;-77
2024/03/06 12:35:45;;;;;;;1999.90;999.90;;;;;;;;;;6120699;23;20049;-77
2024/03/06 12:38:17;;;;;;;1999.90;999.90;;;;;;;;;;6121710;23;20509;-79
2024/03/06 12:40:46;;;;;;;1999.90;999.90;;;;;;;;;;6120852;23;20017;-77
2024/03/06 12:43:12;;;;;;;1999.90;999.90;;;;;;;;;;6120568;23;20094;-77
2024/03/06 12:45:40;;;;;;;1999.90;999.90;;;;;;;;;;6120901;23;20018;-77
2024/03/06 12:48:07;;;;;;;1999.90;999.90;;;;;;;;;;6121098;23;20029;-78
2024/03/06 12:50:35;;;;;;;1999.90;999.90;;;;;;;;;;6121183;23;20021;-78
2024/03/06 12:53:04;;;;;;;1999.90;999.90;;;;;;;;;;6120748;23;20024;-78
2024/03/06 12:55:31;;;;;;;1999.90;999.90;;;;;;;;;;6120127;23;20026;-78
2024/03/06 12:57:58;;;;;;;1999.90;999.90;;;;;;;;;;6120148;23;20420;-80
2024/03/06 13:00:25;;;;;;;1999.90;999.90;;;;;;;;;;6120611;23;20029;-78
2024/03/06 13:02:51;;;;;;;1999.90;999.90;;;;;;;;;;6120615;23;20037;-78
2024/03/06 13:05:19;;;;;;;1999.90;999.90;;;;;;;;;;6121116;23;20022;-78
2024/03/06 13:07:47;;;;;;;1999.90;999.90;;;;;;;;;;6120394;23;20033;-79
2024/03/06 13:10:13;;;;;;;1999.90;999.90;;;;;;;;;;6120103;23;20022;-77
2024/03/06 13:12:40;;;;;;;1999.90;999.90;;;;;;;;;;6120228;23;20030;-78
2024/03/06 13:15:08;;;;;;;1999.90;999.90;;;;;;;;;;6120009;23;20101;-79
2024/03/06 13:17:34;;;;;;;1999.90;999.90;;;;;;;;;;6120704;23;20073;-79
2024/03/06 13:20:01;;;;;;;1999.90;999.90;;;;;;;;;;6120427;23;20025;-78
2024/03/06 13:22:28;;;;;;;1999.90;999.90;;;;;;;;;;6120219;23;20022;-78
2024/03/06 13:24:57;;;;;;;1999.90;999.90;;;;;;;;;;6120278;23;20025;-78
2024/03/06 13:27:23;;;;;;;1999.90;999.90;;;;;;;;;;6120331;23;20081;-78
2024/03/06 13:29:51;;;;;;;1999.90;999.90;;;;;;;;;;6120792;23;20026;-78
2024/03/06 13:32:17;;;;;;;1999.90;999.90;;;;;;;;;;6120298;23;20030;-78
2024/03/06 13:34:44;;;;;;;1999.90;999.90;;;;;;;;;;6120537;23;20022;-76
2024/03/06 13:37:11;;;;;;;1999.90;999.90;;;;;;;;;;6120542;23;20029;-79
2024/03/06 13:39:38;;;;;;;1999.90;999.90;;;;;;;;;;6120124;23;20531;-79
2024/03/06 13:42:08;;;;;;;1999.90;999.90;;;;;;;;;;6120670;23;20022;-78
2024/03/06 13:44:34;;;;;;;1999.90;999.90;;;;;;;;;;6120450;23;20026;-78